IT-0193 weather

Public forecast

Using degrees Celsius for public forecast. Weather courtesy of forecast.io.

Closest aviation weather report (METAR) to Campo di Volo Lucchina Fly Club"

Closest report is Turin Airport, 16.6 nm (30.7 km) WSW. Retrieved 2020/08/12 00:20 UTC (27 minutes ago):

LIMF 120020Z 26001KT CAVOK 23/18 Q1017

Closest aviation forecast (TAF) to Campo di Volo Lucchina Fly Club"

Closest forecast is Turin Airport, 16.6 nm (30.7 km) WSW. Retrieved 2020-08-12 00:26 UTC (21 minutes ago):

TAF LIMF 112300Z 1200/1224 VRB05KT 9999 FEW030 TEMPO 1215/1218 TSRA